createdAt,value
2018-03-20T00:01:23.980Z,11.33
2018-03-20T00:03:53.137Z,14.23
2018-03-20T00:06:22.312Z,12.20
2018-03-20T00:08:51.469Z,15.57
2018-03-20T00:11:20.648Z,13.00
2018-03-20T00:13:49.819Z,13.50
2018-03-20T00:16:19.013Z,12.17
2018-03-20T00:18:48.168Z,10.63
2018-03-20T00:21:17.369Z,14.07
2018-03-20T00:23:46.543Z,16.50
2018-03-20T00:26:15.744Z,14.97
2018-03-20T00:28:45.328Z,11.23
2018-03-20T00:31:14.516Z,12.10
2018-03-20T00:33:43.679Z,11.80
2018-03-20T00:36:12.861Z,13.83
2018-03-20T00:38:42.017Z,13.63
2018-03-20T00:41:11.218Z,10.37
2018-03-20T00:43:40.375Z,9.20
2018-03-20T00:46:09.532Z,10.63
2018-03-20T00:48:38.704Z,10.40
2018-03-20T00:51:07.860Z,11.00
2018-03-20T00:53:37.047Z,12.20
2018-03-20T00:56:06.195Z,14.53
2018-03-20T00:58:35.368Z,10.97
2018-03-20T01:01:04.541Z,12.23
2018-03-20T01:03:33.743Z,10.43
2018-03-20T01:06:02.896Z,11.07
2018-03-20T01:08:32.069Z,9.70
2018-03-20T01:11:01.234Z,12.60
2018-03-20T01:13:30.408Z,13.53
2018-03-20T01:15:59.577Z,12.20
2018-03-20T01:18:28.766Z,9.93
2018-03-20T01:20:57.920Z,12.30
2018-03-20T01:23:27.102Z,10.33
2018-03-20T01:25:56.257Z,11.03
2018-03-20T01:28:25.442Z,10.83
2018-03-20T01:30:54.652Z,11.33
2018-03-20T01:33:23.828Z,10.90
2018-03-20T01:35:52.980Z,8.73
2018-03-20T01:38:22.156Z,12.00
2018-03-20T01:40:51.344Z,12.50
2018-03-20T01:43:20.521Z,10.43
2018-03-20T01:45:49.673Z,16.10
2018-03-20T01:48:18.844Z,10.93
2018-03-20T01:50:47.999Z,12.43
2018-03-20T01:53:18.996Z,13.27
2018-03-20T01:55:48.156Z,17.67
2018-03-20T01:58:17.332Z,18.07
2018-03-20T02:00:46.480Z,12.03
2018-03-20T02:03:15.653Z,14.33
2018-03-20T02:05:44.838Z,17.83
2018-03-20T02:08:14.007Z,19.47
2018-03-20T02:10:43.167Z,18.93
2018-03-20T02:13:12.349Z,24.13
2018-03-20T02:15:41.515Z,19.43
2018-03-20T02:18:10.695Z,19.03
2018-03-20T02:20:39.867Z,23.40
2018-03-20T02:23:09.049Z,19.67
2018-03-20T02:25:38.205Z,25.17
2018-03-20T02:28:07.411Z,23.37
2018-03-20T02:30:36.573Z,24.43
2018-03-20T02:33:05.748Z,26.57
2018-03-20T02:35:34.912Z,18.50
2018-03-20T02:38:04.116Z,18.67
2018-03-20T02:40:33.290Z,24.00
2018-03-20T02:43:02.473Z,25.30
2018-03-20T02:45:31.645Z,23.83
2018-03-20T02:48:00.822Z,16.63
2018-03-20T02:50:29.989Z,14.53
2018-03-20T02:52:59.168Z,23.50
2018-03-20T02:55:28.336Z,21.33
2018-03-20T02:57:57.513Z,25.77
2018-03-20T03:00:26.672Z,21.17
2018-03-20T03:02:55.871Z,19.47
2018-03-20T03:05:25.032Z,19.80
2018-03-20T03:07:54.233Z,19.07
2018-03-20T03:10:23.388Z,19.13
2018-03-20T03:12:52.565Z,17.20
2018-03-20T03:15:21.731Z,22.60
2018-03-20T03:17:50.916Z,19.10
2018-03-20T03:20:20.079Z,19.93
2018-03-20T03:22:49.281Z,17.40
2018-03-20T03:25:18.447Z,21.07
2018-03-20T03:27:47.624Z,15.97
2018-03-20T03:30:16.784Z,19.00
2018-03-20T03:32:45.967Z,23.30
2018-03-20T03:35:15.140Z,21.77
2018-03-20T03:37:44.320Z,18.37
2018-03-20T03:40:13.480Z,27.63
2018-03-20T03:42:42.659Z,20.87
2018-03-20T03:45:11.825Z,23.33
2018-03-20T03:47:41.007Z,19.60
2018-03-20T03:50:10.164Z,18.97
2018-03-20T03:52:39.344Z,20.83
2018-03-20T03:55:08.501Z,21.37
2018-03-20T03:57:37.683Z,18.77
2018-03-20T04:00:06.840Z,18.70
2018-03-20T04:02:36.032Z,24.47
2018-03-20T04:05:05.196Z,26.63
2018-03-20T04:07:34.376Z,24.87
2018-03-20T04:10:03.536Z,21.77
2018-03-20T04:12:32.742Z,20.60
2018-03-20T04:15:01.904Z,28.17
2018-03-20T04:17:31.085Z,25.37
2018-03-20T04:20:00.242Z,20.77
2018-03-20T04:22:29.439Z,23.90
2018-03-20T04:24:58.608Z,25.37
2018-03-20T04:27:27.796Z,21.30
2018-03-20T04:29:56.956Z,23.43
2018-03-20T04:32:26.131Z,25.23
2018-03-20T04:34:55.292Z,25.27
2018-03-20T04:37:24.532Z,19.17
2018-03-20T04:39:53.691Z,25.93
2018-03-20T04:42:22.882Z,21.00
2018-03-20T04:44:52.040Z,22.93
2018-03-20T04:47:21.202Z,20.93
2018-03-20T04:49:50.391Z,21.50
2018-03-20T04:52:19.558Z,21.30
2018-03-20T04:54:48.733Z,26.53
2018-03-20T04:57:17.906Z,21.97
2018-03-20T04:59:47.087Z,23.67
2018-03-20T05:02:16.312Z,28.83
2018-03-20T05:04:45.488Z,20.93
2018-03-20T05:07:14.639Z,24.50
2018-03-20T05:09:43.812Z,20.27
2018-03-20T05:12:12.978Z,21.70
2018-03-20T05:14:42.164Z,21.97
2018-03-20T05:17:11.325Z,24.70
2018-03-20T05:19:59.429Z,20.93
2018-03-20T05:22:34.468Z,25.33
2018-03-20T05:25:03.647Z,23.63
2018-03-20T05:27:32.807Z,19.10
2018-03-20T05:30:02.000Z,26.60
2018-03-20T05:32:31.164Z,24.67
2018-03-20T05:35:00.358Z,17.43
2018-03-20T05:37:29.516Z,24.20
2018-03-20T05:39:58.704Z,21.83
2018-03-20T05:42:27.869Z,24.73
2018-03-20T05:44:57.056Z,27.20
2018-03-20T05:47:32.155Z,26.77
2018-03-20T05:50:07.054Z,25.17
2018-03-20T05:52:36.223Z,21.77
2018-03-20T05:55:05.396Z,26.50
2018-03-20T05:57:34.552Z,26.97
2018-03-20T06:00:03.727Z,23.07
2018-03-20T06:02:32.888Z,21.93
2018-03-20T06:05:02.086Z,25.03
2018-03-20T06:07:31.252Z,26.43
2018-03-20T06:10:00.428Z,33.00
2018-03-20T06:12:29.581Z,28.77
2018-03-20T06:14:58.760Z,28.17
2018-03-20T06:17:27.915Z,22.70
2018-03-20T06:19:57.099Z,26.00
2018-03-20T06:22:26.254Z,28.50
2018-03-20T06:24:55.435Z,28.47
2018-03-20T06:27:24.588Z,20.77
2018-03-20T06:29:53.777Z,20.70
2018-03-20T06:32:22.936Z,19.00
2018-03-20T06:34:52.121Z,24.67
2018-03-20T06:37:21.277Z,24.13
2018-03-20T06:39:50.456Z,25.67
2018-03-20T06:42:19.616Z,28.53
2018-03-20T06:44:48.791Z,26.20
2018-03-20T06:47:17.952Z,25.20
2018-03-20T06:49:47.124Z,21.27
2018-03-20T06:52:16.272Z,16.83
2018-03-20T06:54:45.455Z,15.67
2018-03-20T06:57:14.607Z,17.17
2018-03-20T06:59:43.784Z,14.33
2018-03-20T07:02:12.936Z,16.37
2018-03-20T07:04:42.112Z,15.40
2018-03-20T07:07:11.264Z,13.60
2018-03-20T07:09:40.441Z,10.10
2018-03-20T07:12:09.592Z,15.67
2018-03-20T07:14:38.764Z,7.73
2018-03-20T07:17:07.916Z,7.27
2018-03-20T07:19:37.084Z,8.47
2018-03-20T07:22:06.240Z,8.90
2018-03-20T07:24:35.404Z,7.10
2018-03-20T07:27:04.558Z,8.83
2018-03-20T07:29:33.733Z,7.50
2018-03-20T07:32:02.890Z,10.50
2018-03-20T07:34:32.133Z,9.27
2018-03-20T07:37:01.244Z,7.80
2018-03-20T07:39:30.415Z,5.07
2018-03-20T07:41:59.559Z,7.10
2018-03-20T07:44:28.752Z,9.80
2018-03-20T07:46:57.943Z,7.90
2018-03-20T07:49:27.221Z,8.90
2018-03-20T07:51:56.392Z,6.53
2018-03-20T07:54:25.581Z,6.57
2018-03-20T07:56:54.740Z,12.07
2018-03-20T07:59:23.917Z,7.93
2018-03-20T08:01:53.072Z,7.27
2018-03-20T08:04:22.264Z,5.20
2018-03-20T08:06:51.420Z,9.33
2018-03-20T08:09:20.599Z,8.83
2018-03-20T08:11:49.775Z,8.97
2018-03-20T08:14:18.940Z,7.63
2018-03-20T08:16:48.112Z,7.57
2018-03-20T08:19:17.267Z,4.93
2018-03-20T08:21:46.738Z,9.00
2018-03-20T08:24:15.892Z,7.37
2018-03-20T08:26:45.062Z,5.10
2018-03-20T08:29:14.223Z,10.17
2018-03-20T08:31:43.399Z,9.20
2018-03-20T08:34:12.565Z,5.43
2018-03-20T08:36:41.761Z,8.13
2018-03-20T08:39:10.907Z,8.37
2018-03-20T08:41:40.075Z,5.93
2018-03-20T08:44:09.222Z,6.60
2018-03-20T08:46:38.412Z,7.77
2018-03-20T08:49:07.569Z,6.87
2018-03-20T08:51:36.743Z,6.97
2018-03-20T08:54:05.914Z,7.17
2018-03-20T08:56:35.079Z,6.67
2018-03-20T08:59:04.252Z,6.67
2018-03-20T09:01:33.417Z,6.07
2018-03-20T09:04:02.573Z,5.90
2018-03-20T09:06:31.755Z,6.10
2018-03-20T09:09:00.902Z,7.97
2018-03-20T09:11:30.097Z,8.23
2018-03-20T09:13:59.256Z,6.77
2018-03-20T09:16:28.442Z,7.40
2018-03-20T09:18:57.644Z,6.23
2018-03-20T09:21:26.793Z,5.37
2018-03-20T09:23:55.949Z,8.30
2018-03-20T09:26:25.116Z,8.83
2018-03-20T09:28:54.263Z,4.87
2018-03-20T09:31:23.440Z,5.17
2018-03-20T09:33:52.596Z,7.53
2018-03-20T09:36:21.808Z,5.47
2018-03-20T09:38:50.961Z,5.87
2018-03-20T09:41:20.132Z,4.90
2018-03-20T09:43:49.326Z,6.63
2018-03-20T09:46:18.468Z,5.77
2018-03-20T09:48:47.644Z,5.17
2018-03-20T09:51:16.819Z,3.90
2018-03-20T09:53:45.971Z,4.60
2018-03-20T09:56:15.136Z,4.90
2018-03-20T09:58:44.292Z,4.00
2018-03-20T10:01:13.507Z,5.20
2018-03-20T10:03:42.656Z,4.57
2018-03-20T10:06:11.828Z,5.00
2018-03-20T10:08:40.985Z,4.87
2018-03-20T10:11:10.164Z,3.90
2018-03-20T10:13:39.320Z,3.00
2018-03-20T10:16:08.501Z,4.80
2018-03-20T10:18:37.655Z,5.40
2018-03-20T10:21:06.832Z,3.63
2018-03-20T10:23:35.988Z,3.97
2018-03-20T10:26:05.188Z,4.70
2018-03-20T10:28:34.369Z,4.23
2018-03-20T10:31:03.543Z,4.63
2018-03-20T10:33:32.694Z,5.33
2018-03-20T10:36:01.868Z,3.73
2018-03-20T10:38:31.020Z,5.23
2018-03-20T10:41:00.191Z,3.70
2018-03-20T10:43:29.340Z,2.80
2018-03-20T10:45:58.511Z,2.20
2018-03-20T10:48:27.676Z,4.13
2018-03-20T10:50:56.850Z,3.67
2018-03-20T10:53:26.005Z,3.73
2018-03-20T10:55:55.176Z,6.10
2018-03-20T10:58:24.336Z,2.40
2018-03-20T11:00:59.384Z,3.37
2018-03-20T11:03:28.543Z,4.77
2018-03-20T11:05:57.736Z,4.00
2018-03-20T11:08:26.893Z,6.20
2018-03-20T11:10:56.064Z,6.37
2018-03-20T11:13:25.216Z,3.30
2018-03-20T11:15:54.388Z,1.90
2018-03-20T11:18:23.544Z,3.90
2018-03-20T11:20:52.736Z,3.00
2018-03-20T11:23:21.885Z,2.83
2018-03-20T11:25:51.056Z,2.87
2018-03-20T11:28:20.208Z,7.80
2018-03-20T11:30:49.388Z,4.40
2018-03-20T11:33:18.573Z,2.70
2018-03-20T11:35:47.761Z,3.43
2018-03-20T11:38:16.913Z,3.60
2018-03-20T11:40:46.088Z,2.57
2018-03-20T11:43:15.255Z,2.23
2018-03-20T11:45:44.436Z,2.77
2018-03-20T11:48:13.600Z,8.07
2018-03-20T11:50:42.771Z,4.73
2018-03-20T11:53:11.924Z,3.17
2018-03-20T11:55:41.153Z,6.20
2018-03-20T11:58:10.305Z,4.97
2018-03-20T12:00:39.480Z,4.67
2018-03-20T12:03:08.636Z,3.37
2018-03-20T12:05:37.816Z,3.17
2018-03-20T12:08:12.884Z,3.57
2018-03-20T12:10:42.057Z,8.03
2018-03-20T12:13:11.204Z,5.93
2018-03-20T12:15:40.376Z,2.27
2018-03-20T12:18:09.520Z,5.03
2018-03-20T12:20:38.692Z,3.53
2018-03-20T12:23:07.848Z,3.53
2018-03-20T12:25:37.008Z,2.43
2018-03-20T12:28:06.184Z,2.60
2018-03-20T12:30:35.344Z,6.93
2018-03-20T12:33:04.520Z,3.97
2018-03-20T12:35:33.685Z,3.60
2018-03-20T12:38:02.865Z,2.50
2018-03-20T12:40:32.020Z,3.77
2018-03-20T12:43:01.192Z,4.50
2018-03-20T12:45:30.340Z,5.90
2018-03-20T12:47:59.554Z,2.37
2018-03-20T12:50:28.738Z,2.37
2018-03-20T12:52:57.912Z,2.40
2018-03-20T12:55:27.065Z,4.23
2018-03-20T12:57:56.239Z,2.07
2018-03-20T13:00:25.424Z,3.47
2018-03-20T13:02:54.601Z,4.60
2018-03-20T13:05:23.759Z,4.07
2018-03-20T13:07:52.932Z,4.00
2018-03-20T13:10:22.081Z,3.47
2018-03-20T13:12:51.267Z,4.37
2018-03-20T13:15:20.418Z,4.27
2018-03-20T13:17:49.592Z,2.27
2018-03-20T13:20:18.744Z,4.57
2018-03-20T13:22:47.911Z,6.67
2018-03-20T13:25:17.093Z,7.10
2018-03-20T13:27:46.263Z,5.47
2018-03-20T13:30:15.413Z,4.00
2018-03-20T13:32:44.588Z,3.10
2018-03-20T13:35:13.753Z,8.23
2018-03-20T13:37:42.924Z,2.53
2018-03-20T13:40:12.079Z,3.90
2018-03-20T13:42:41.248Z,3.70
2018-03-20T13:45:10.428Z,5.57
2018-03-20T13:47:39.603Z,4.03
2018-03-20T13:50:08.761Z,2.83
2018-03-20T13:52:37.949Z,2.10
2018-03-20T13:55:07.100Z,2.80
2018-03-20T13:57:36.276Z,3.63
2018-03-20T14:00:05.438Z,3.67
2018-03-20T14:02:34.629Z,2.50
2018-03-20T14:05:03.784Z,3.73
2018-03-20T14:07:32.956Z,3.97
2018-03-20T14:10:02.103Z,2.63
2018-03-20T14:12:31.290Z,8.07
2018-03-20T14:15:00.444Z,2.80
2018-03-20T14:17:29.624Z,3.23
2018-03-20T14:19:58.780Z,13.80
2018-03-20T14:22:27.961Z,4.53
2018-03-20T14:24:57.119Z,20.47
2018-03-20T14:27:26.300Z,2.50
2018-03-20T14:29:55.460Z,2.60
2018-03-20T14:32:24.632Z,2.33
2018-03-20T14:34:53.790Z,5.10
2018-03-20T14:37:22.964Z,5.10
2018-03-20T14:39:52.185Z,5.53
2018-03-20T14:42:21.356Z,3.87
2018-03-20T14:44:50.513Z,2.03
2018-03-20T14:47:19.689Z,2.40
2018-03-20T14:49:48.848Z,4.50
2018-03-20T14:52:18.032Z,4.10
2018-03-20T14:54:47.200Z,3.67
2018-03-20T14:57:16.368Z,5.00
2018-03-20T14:59:46.269Z,5.47
2018-03-20T15:02:15.452Z,4.90
2018-03-20T15:04:44.661Z,2.23
2018-03-20T15:07:13.944Z,4.53
2018-03-20T15:09:43.110Z,4.57
2018-03-20T15:12:12.280Z,3.80
2018-03-20T15:14:41.433Z,3.27
2018-03-20T15:17:10.606Z,3.27
2018-03-20T15:19:39.765Z,3.43
2018-03-20T15:22:08.940Z,4.10
2018-03-20T15:24:38.114Z,4.17
2018-03-20T15:27:07.297Z,2.23
2018-03-20T15:29:36.454Z,4.70
2018-03-20T15:32:05.624Z,3.10
2018-03-20T15:34:34.779Z,7.00
2018-03-20T15:37:03.972Z,6.27
2018-03-20T15:39:33.152Z,4.77
2018-03-20T15:42:02.330Z,3.47
2018-03-20T15:44:31.485Z,3.33
2018-03-20T15:47:00.657Z,5.07
2018-03-20T15:49:29.813Z,2.23
2018-03-20T15:51:59.025Z,5.03
2018-03-20T15:54:28.184Z,6.83
2018-03-20T15:56:57.358Z,5.63
2018-03-20T15:59:26.548Z,2.40
2018-03-20T16:01:55.724Z,4.03
2018-03-20T16:04:24.876Z,2.33
2018-03-20T16:06:54.044Z,1.83
2018-03-20T16:09:23.200Z,4.90
2018-03-20T16:11:52.369Z,2.80
2018-03-20T16:14:21.534Z,4.43
2018-03-20T16:16:50.890Z,2.83
2018-03-20T16:19:20.060Z,3.03
2018-03-20T16:21:49.224Z,2.90
2018-03-20T16:24:18.393Z,7.13
2018-03-20T16:26:47.573Z,3.60
2018-03-20T16:29:16.745Z,4.77
2018-03-20T16:31:45.984Z,4.63
2018-03-20T16:34:15.162Z,1.73
2018-03-20T16:36:44.324Z,2.00
2018-03-20T16:39:13.512Z,2.40
2018-03-20T16:41:42.672Z,3.03
2018-03-20T16:44:11.841Z,3.57
2018-03-20T16:46:41.001Z,2.57
2018-03-20T16:49:10.219Z,4.63
2018-03-20T16:51:39.432Z,3.10
2018-03-20T16:54:08.608Z,3.73
2018-03-20T16:56:37.758Z,4.93
2018-03-20T16:59:06.935Z,2.53
2018-03-20T17:01:36.084Z,2.50
2018-03-20T17:04:05.256Z,3.17
2018-03-20T17:06:34.406Z,2.03
2018-03-20T17:09:03.580Z,2.50
2018-03-20T17:11:32.743Z,4.20
2018-03-20T17:14:01.924Z,5.43
2018-03-20T17:16:31.080Z,2.87
2018-03-20T17:19:00.260Z,4.27
2018-03-20T17:21:29.420Z,3.37
2018-03-20T17:23:58.593Z,2.93
2018-03-20T17:26:27.757Z,3.20
2018-03-20T17:28:56.972Z,5.93
2018-03-20T17:31:26.140Z,3.47
2018-03-20T17:33:55.319Z,3.83
2018-03-20T17:36:24.477Z,2.63
2018-03-20T17:38:53.672Z,4.50
2018-03-20T17:41:22.841Z,17.43
2018-03-20T17:43:52.018Z,19.27
2018-03-20T17:46:21.231Z,15.80
2018-03-20T17:48:50.380Z,17.63
2018-03-20T17:51:19.532Z,4.53
2018-03-20T17:53:48.718Z,3.27
2018-03-20T17:56:17.888Z,5.10
2018-03-20T17:58:47.061Z,5.53
2018-03-20T18:01:16.216Z,3.40
2018-03-20T18:03:45.395Z,5.23
2018-03-20T18:06:14.559Z,4.43
2018-03-20T18:08:43.737Z,4.90
2018-03-20T18:11:12.894Z,3.40
2018-03-20T18:13:42.064Z,5.13
2018-03-20T18:16:11.220Z,3.93
2018-03-20T18:18:40.398Z,4.40
2018-03-20T18:21:09.552Z,3.00
2018-03-20T18:23:38.726Z,2.60
2018-03-20T18:26:07.877Z,3.83
2018-03-20T18:28:37.896Z,3.93
2018-03-20T18:31:07.052Z,2.63
2018-03-20T18:33:36.233Z,2.83
2018-03-20T18:36:05.402Z,3.27
2018-03-20T18:38:34.585Z,3.70
2018-03-20T18:41:03.753Z,4.77
2018-03-20T18:43:32.924Z,5.83
2018-03-20T18:46:02.084Z,4.27
2018-03-20T18:48:31.267Z,3.80
2018-03-20T18:51:00.437Z,4.23
2018-03-20T18:53:29.610Z,4.30
2018-03-20T18:55:58.785Z,5.37
2018-03-20T18:58:28.151Z,2.47
2018-03-20T19:00:57.599Z,3.33
2018-03-20T19:03:26.781Z,3.53
2018-03-20T19:05:55.977Z,3.40
2018-03-20T19:08:25.156Z,5.37
2018-03-20T19:10:54.305Z,4.33
2018-03-20T19:13:23.472Z,4.43
2018-03-20T19:15:52.625Z,3.80
2018-03-20T19:18:21.802Z,12.17
2018-03-20T19:20:50.979Z,7.30
2018-03-20T19:23:20.183Z,3.57
2018-03-20T19:25:49.341Z,4.53
2018-03-20T19:28:18.513Z,3.30
2018-03-20T19:30:47.666Z,3.87
2018-03-20T19:33:16.836Z,5.83
2018-03-20T19:35:45.996Z,3.83
2018-03-20T19:38:15.167Z,4.93
2018-03-20T19:40:44.323Z,3.83
2018-03-20T19:43:13.492Z,2.10
2018-03-20T19:45:42.651Z,3.53
2018-03-20T19:48:11.834Z,2.80
2018-03-20T19:50:41.000Z,2.40
2018-03-20T19:53:10.168Z,4.27
2018-03-20T19:55:39.317Z,5.90
2018-03-20T19:58:08.487Z,3.83
2018-03-20T20:00:37.636Z,4.30
2018-03-20T20:03:06.809Z,6.10
2018-03-20T20:05:35.960Z,2.30
2018-03-20T20:08:05.144Z,2.60
2018-03-20T20:13:08.859Z,5.33
2018-03-20T20:15:38.008Z,7.37
2018-03-20T20:18:07.180Z,5.47
2018-03-20T20:20:36.349Z,6.47
2018-03-20T20:23:05.504Z,4.07
2018-03-20T20:25:34.767Z,3.63
2018-03-20T20:28:03.880Z,5.97
2018-03-20T20:30:33.079Z,5.33
2018-03-20T20:33:02.244Z,3.10
2018-03-20T20:35:31.419Z,5.43
2018-03-20T20:38:00.598Z,5.23
2018-03-20T20:40:29.767Z,3.67
2018-03-20T20:42:58.929Z,4.90
2018-03-20T20:45:28.117Z,6.37
2018-03-20T20:47:57.263Z,3.37
2018-03-20T20:50:26.431Z,10.37
2018-03-20T20:52:55.581Z,5.43
2018-03-20T20:55:24.757Z,5.33
2018-03-20T20:57:53.924Z,5.03
2018-03-20T21:00:23.352Z,4.93
2018-03-20T21:02:52.546Z,3.23
2018-03-20T21:05:21.739Z,4.03
2018-03-20T21:07:50.909Z,3.67
2018-03-20T21:10:20.083Z,4.53
2018-03-20T21:12:49.255Z,7.97
2018-03-20T21:15:18.424Z,8.43
2018-03-20T21:17:47.666Z,5.93
2018-03-20T21:20:16.892Z,4.30
2018-03-20T21:22:46.096Z,8.27
2018-03-20T21:25:15.268Z,6.00
2018-03-20T21:27:44.428Z,6.67
2018-03-20T21:30:13.601Z,6.77
2018-03-20T21:32:42.778Z,11.83
2018-03-20T21:35:11.956Z,5.93
2018-03-20T21:37:41.112Z,5.90
2018-03-20T21:40:10.284Z,8.13
2018-03-20T21:42:39.448Z,5.83
2018-03-20T21:45:08.620Z,3.60
2018-03-20T21:47:37.773Z,5.63
2018-03-20T21:50:06.998Z,4.60
2018-03-20T21:52:36.148Z,5.77
2018-03-20T21:55:05.321Z,4.40
2018-03-20T21:57:34.484Z,6.07
2018-03-20T22:00:03.656Z,5.67
2018-03-20T22:02:32.812Z,5.60
2018-03-20T22:05:01.985Z,6.20
2018-03-20T22:07:31.152Z,4.13
2018-03-20T22:10:00.320Z,7.07
2018-03-20T22:12:29.479Z,5.57
2018-03-20T22:14:58.731Z,6.80
2018-03-20T22:17:27.880Z,7.83
2018-03-20T22:19:57.056Z,6.67
2018-03-20T22:22:26.204Z,5.27
2018-03-20T22:24:55.532Z,7.50
2018-03-20T22:27:24.714Z,6.47
2018-03-20T22:29:53.961Z,5.07
2018-03-20T22:32:23.109Z,6.83
2018-03-20T22:34:52.292Z,4.53
2018-03-20T22:37:21.461Z,4.87
2018-03-20T22:39:50.652Z,7.47
2018-03-20T22:42:19.822Z,6.23
2018-03-20T22:44:49.000Z,6.90
2018-03-20T22:47:18.156Z,5.30
2018-03-20T22:49:47.382Z,5.87
2018-03-20T22:52:16.505Z,8.00
2018-03-20T22:54:45.684Z,7.57
2018-03-20T22:57:14.868Z,8.33
2018-03-20T22:59:44.049Z,5.57
2018-03-20T23:02:13.201Z,5.83
2018-03-20T23:04:42.776Z,4.57
2018-03-20T23:07:11.928Z,7.83
2018-03-20T23:09:41.102Z,6.47
2018-03-20T23:12:10.269Z,7.90
2018-03-20T23:14:39.435Z,6.00
2018-03-20T23:17:08.592Z,6.00
2018-03-20T23:19:37.783Z,3.50
2018-03-20T23:22:06.951Z,9.27
2018-03-20T23:24:36.133Z,5.33
2018-03-20T23:27:05.291Z,7.37
2018-03-20T23:29:34.459Z,6.23
2018-03-20T23:32:03.607Z,6.37
2018-03-20T23:34:32.790Z,5.30
2018-03-20T23:37:01.957Z,5.43
2018-03-20T23:39:31.124Z,6.67
2018-03-20T23:42:00.277Z,3.93
2018-03-20T23:44:29.479Z,7.73
2018-03-20T23:46:58.660Z,9.43
2018-03-20T23:49:27.832Z,8.33
2018-03-20T23:51:56.985Z,10.27
2018-03-20T23:54:26.152Z,8.57
2018-03-20T23:56:55.305Z,7.87
2018-03-20T23:59:24.489Z,6.60
